Time;durP1;ratioP1;P1;durP2;ratioP2;P2;SDS_P1;SDS_P2;PMS_P1;PMS_P2;Temp;Humidity;BMP_temperature;BMP_pressure;BME280_temperature;BME280_humidity;BME280_pressure;Samples;Min_cycle;Max_cycle;Signal;HPM_P1;HPM_P2
2022/06/13 00:01:23;;;;;;;3.53;3.17;;;;;;;-144.82;100.00;71671.09;4992344;28;20026;-77
2022/06/13 00:03:49;;;;;;;5.00;3.50;;;;;;;-144.82;100.00;71671.09;4977265;28;20034;-74
2022/06/13 00:06:14;;;;;;;3.83;3.42;;;;;;;-144.82;100.00;71671.09;4996941;28;20030;-75
2022/06/13 00:08:41;;;;;;;3.70;3.40;;;;;;;-144.82;100.00;71671.09;4995529;28;20411;-73
2022/06/13 00:11:11;;;;;;;3.60;3.25;;;;;;;-144.82;100.00;71671.09;4996725;28;20464;-74
2022/06/13 00:13:38;;;;;;;4.07;3.25;;;;;;;-144.82;100.00;71671.09;4995740;28;20038;-75
2022/06/13 00:16:05;;;;;;;4.22;3.35;;;;;;;-144.82;100.00;71671.09;4995788;28;20042;-75
2022/06/13 00:18:31;;;;;;;3.95;3.53;;;;;;;-144.82;100.00;71671.09;4997048;28;20041;-75
2022/06/13 00:20:57;;;;;;;4.82;3.50;;;;;;;-144.82;100.00;71671.09;4996769;28;20022;-75
2022/06/13 00:23:24;;;;;;;5.45;3.20;;;;;;;-144.82;100.00;71671.09;4996541;28;20121;-75
2022/06/13 00:25:49;;;;;;;4.53;2.90;;;;;;;-144.82;100.00;71671.09;4996216;28;20042;-74
2022/06/13 00:28:16;;;;;;;3.78;3.10;;;;;;;-144.82;100.00;71671.09;4996886;28;20026;-74
2022/06/13 00:30:41;;;;;;;3.47;2.88;;;;;;;-144.82;100.00;71671.09;4996797;28;20034;-74
2022/06/13 00:33:06;;;;;;;7.38;3.70;;;;;;;-144.82;100.00;71671.09;4996462;28;20022;-74
2022/06/13 00:35:32;;;;;;;5.70;3.63;;;;;;;-144.82;100.00;71671.09;4996053;28;20046;-74
2022/06/13 00:37:58;;;;;;;3.92;3.53;;;;;;;-144.82;100.00;71671.09;4996476;28;20027;-74
2022/06/13 00:40:25;;;;;;;5.43;4.00;;;;;;;-144.82;100.00;71671.09;4996454;28;20046;-76
2022/06/13 00:42:51;;;;;;;4.97;3.88;;;;;;;-144.82;100.00;71671.09;4995424;28;20026;-75
2022/06/13 00:45:24;;;;;;;5.18;4.13;;;;;;;-144.82;100.00;71671.09;4996557;28;20026;-75
2022/06/13 00:47:57;;;;;;;4.18;3.78;;;;;;;-144.82;100.00;71671.09;4995181;28;20034;-76
2022/06/13 00:50:46;;;;;;;4.82;3.50;;;;;;;-144.82;100.00;71671.09;4995173;28;20383;-76
2022/06/13 00:53:21;;;;;;;4.88;3.67;;;;;;;-144.82;100.00;71671.09;4994995;28;20022;-76
2022/06/13 00:56:00;;;;;;;4.30;3.90;;;;;;;-144.82;100.00;71671.09;4979056;28;20133;-76
2022/06/13 00:58:40;;;;;;;5.05;3.92;;;;;;;-144.82;100.00;71671.09;4996186;28;20034;-76
2022/06/13 01:01:06;;;;;;;5.18;4.10;;;;;;;-144.82;100.00;71671.09;4999132;28;20406;-75
2022/06/13 01:03:34;;;;;;;5.15;4.15;;;;;;;-144.82;100.00;71671.09;4995003;28;20040;-76
2022/06/13 01:06:09;;;;;;;5.82;4.80;;;;;;;-144.82;100.00;71671.09;5005084;28;20048;-74
2022/06/13 01:08:37;;;;;;;4.75;4.15;;;;;;;-144.82;100.00;71671.09;5000135;28;20061;-72
2022/06/13 01:11:16;;;;;;;6.80;5.13;;;;;;;-144.82;100.00;71671.09;5005179;28;20529;-72
2022/06/13 01:14:15;;;;;;;6.28;4.80;;;;;;;-144.82;100.00;71671.09;4999227;28;20033;-72
2022/06/13 01:17:12;;;;;;;6.00;4.38;;;;;;;-144.82;100.00;71671.09;5013623;28;20065;-72
2022/06/13 01:20:17;;;;;;;5.45;4.65;;;;;;;-144.82;100.00;71671.09;5012164;28;20045;-73
2022/06/13 01:23:01;;;;;;;5.78;4.63;;;;;;;-144.82;100.00;71671.09;4995850;28;20030;-73
2022/06/13 01:25:28;;;;;;;4.70;4.22;;;;;;;-144.82;100.00;71671.09;4994253;28;20049;-73
2022/06/13 01:28:29;;;;;;;3.92;3.63;;;;;;;-144.82;100.00;71671.09;4999365;28;20455;-72
2022/06/13 01:31:33;;;;;;;5.43;4.43;;;;;;;-144.82;100.00;71671.09;5000887;28;20030;-73
2022/06/13 01:34:14;;;;;;;5.47;4.97;;;;;;;-144.82;100.00;71671.09;4995420;28;20519;-73
2022/06/13 01:36:57;;;;;;;5.88;5.38;;;;;;;-144.82;100.00;71671.09;4995756;28;20034;-72
2022/06/13 01:40:00;;;;;;;5.18;4.68;;;;;;;-144.82;100.00;71671.09;4995658;28;20038;-72
2022/06/13 01:43:04;;;;;;;5.40;4.90;;;;;;;-144.82;100.00;71671.09;4995204;28;20034;-72
2022/06/13 01:45:43;;;;;;;6.22;4.75;;;;;;;-144.82;100.00;71671.09;4995259;28;20089;-73
2022/06/13 01:48:27;;;;;;;7.95;5.30;;;;;;;-144.82;100.00;71671.09;4978077;28;20027;-73
2022/06/13 01:51:20;;;;;;;6.43;5.50;;;;;;;-144.82;100.00;71671.09;4995379;28;20036;-73
2022/06/13 01:54:00;;;;;;;7.45;5.20;;;;;;;-144.82;100.00;71671.09;4994112;28;20030;-73
2022/06/13 01:56:48;;;;;;;6.50;5.32;;;;;;;-144.82;100.00;71671.09;4995300;28;20054;-73
2022/06/13 01:59:22;;;;;;;5.45;4.80;;;;;;;-144.82;100.00;71671.09;4995001;28;20465;-73
2022/06/13 02:02:09;;;;;;;6.13;5.03;;;;;;;-144.82;100.00;71671.09;4995167;28;20069;-73
2022/06/13 02:05:04;;;;;;;5.57;4.80;;;;;;;-144.82;100.00;71671.09;4979659;28;20499;-73
2022/06/13 02:07:36;;;;;;;6.65;5.88;;;;;;;-144.82;100.00;71671.09;4993606;28;20080;-73
2022/06/13 02:10:20;;;;;;;6.78;4.93;;;;;;;-144.82;100.00;71671.09;4993308;28;20059;-72
2022/06/13 02:12:55;;;;;;;5.80;5.30;;;;;;;-144.82;100.00;71671.09;4993588;28;20504;-72
2022/06/13 02:15:25;;;;;;;6.18;5.13;;;;;;;-144.82;100.00;71671.09;4993597;28;20165;-73
2022/06/13 02:17:59;;;;;;;6.80;5.47;;;;;;;-144.82;100.00;71671.09;4977170;28;20045;-72
2022/06/13 02:20:31;;;;;;;8.10;6.43;;;;;;;-144.82;100.00;71671.09;4993743;28;20041;-73
2022/06/13 02:23:00;;;;;;;7.25;5.78;;;;;;;-144.82;100.00;71671.09;4994692;28;20034;-73
2022/06/13 02:25:36;;;;;;;7.47;5.47;;;;;;;-144.82;100.00;71671.09;4994476;28;20033;-72
2022/06/13 02:28:06;;;;;;;6.38;5.78;;;;;;;-144.82;100.00;71671.09;4993461;28;20026;-73
2022/06/13 02:30:49;;;;;;;7.63;5.40;;;;;;;-144.82;100.00;71671.09;4977291;28;20038;-74
2022/06/13 02:33:34;;;;;;;7.60;5.85;;;;;;;-144.82;100.00;71671.09;4993467;28;20388;-72
2022/06/13 02:36:18;;;;;;;7.75;5.45;;;;;;;-144.82;100.00;71671.09;4993298;28;20030;-73
2022/06/13 02:38:51;;;;;;;8.40;5.45;;;;;;;-144.82;100.00;71671.09;4992988;28;20086;-73
2022/06/13 02:41:21;;;;;;;6.70;5.32;;;;;;;-144.82;100.00;71671.09;4993205;28;20136;-72
2022/06/13 02:43:46;;;;;;;10.18;6.60;;;;;;;-144.82;100.00;71671.09;4977302;28;20061;-73
2022/06/13 02:46:25;;;;;;;7.82;5.63;;;;;;;-144.82;100.00;71671.09;4994106;28;20506;-73
2022/06/13 02:48:56;;;;;;;7.28;6.30;;;;;;;-144.82;100.00;71671.09;4993013;28;20037;-73
2022/06/13 02:51:50;;;;;;;9.25;6.25;;;;;;;-144.82;100.00;71671.09;4993127;28;20089;-73
2022/06/13 02:54:50;;;;;;;7.60;6.07;;;;;;;-144.82;100.00;71671.09;4963474;28;20112;-73
2022/06/13 02:58:06;;;;;;;6.80;6.07;;;;;;;-144.82;100.00;71671.09;4992939;28;20026;-73
2022/06/13 03:00:46;;;;;;;8.13;6.30;;;;;;;-144.82;100.00;71671.09;4937344;29;20024;-73
2022/06/13 03:03:38;;;;;;;8.73;6.28;;;;;;;-144.82;100.00;71671.09;4937199;29;20042;-72
2022/06/13 03:06:31;;;;;;;8.55;6.38;;;;;;;-144.82;100.00;71671.09;4987004;28;20038;-73
2022/06/13 03:09:09;;;;;;;8.00;6.30;;;;;;;-144.82;100.00;71671.09;4992547;28;20447;-72
2022/06/13 03:11:40;;;;;;;6.13;5.30;;;;;;;-144.82;100.00;71671.09;4993930;28;20034;-72
2022/06/13 03:14:15;;;;;;;7.85;5.57;;;;;;;-144.82;100.00;71671.09;4976511;28;20022;-73
2022/06/13 03:16:50;;;;;;;6.22;5.63;;;;;;;-144.82;100.00;71671.09;4994301;28;20057;-73
2022/06/13 03:19:22;;;;;;;8.40;5.40;;;;;;;-144.82;100.00;71671.09;4976877;28;20388;-74
2022/06/13 03:21:57;;;;;;;10.07;6.22;;;;;;;-144.82;100.00;71671.09;4994529;28;20500;-74
2022/06/13 03:24:43;;;;;;;6.07;5.20;;;;;;;-144.82;100.00;71671.09;4992786;28;20027;-74
2022/06/13 03:27:35;;;;;;;8.25;5.97;;;;;;;-144.82;100.00;71671.09;4994170;28;20419;-73
2022/06/13 03:30:14;;;;;;;8.38;4.90;;;;;;;-144.82;100.00;71671.09;4993316;28;20096;-74
2022/06/13 03:33:39;;;;;;;6.18;5.25;;;;;;;-144.82;100.00;71671.09;4976379;28;20038;-74
2022/06/13 03:35:38;;;;;;;5.70;5.05;;;;;;;-144.82;100.00;71671.09;4991878;28;20093;-73
2022/06/13 03:38:13;;;;;;;5.35;4.65;;;;;;;-144.82;100.00;71671.09;4993950;28;20062;-73
2022/06/13 03:40:43;;;;;;;6.70;5.28;;;;;;;-144.82;100.00;71671.09;4996414;28;20031;-74
2022/06/13 03:43:19;;;;;;;7.30;5.15;;;;;;;-144.82;100.00;71671.09;4980231;28;20038;-74
2022/06/13 03:45:53;;;;;;;8.38;5.32;;;;;;;-144.82;100.00;71671.09;4996578;28;20098;-73
2022/06/13 03:48:41;;;;;;;8.98;5.57;;;;;;;-144.82;100.00;71671.09;4997794;28;20046;-73
2022/06/13 03:51:21;;;;;;;5.90;5.30;;;;;;;-144.82;100.00;71671.09;4996142;28;20022;-73
2022/06/13 03:53:57;;;;;;;5.32;4.80;;;;;;;-144.82;100.00;71671.09;4996085;28;20018;-73
2022/06/13 03:56:38;;;;;;;8.30;5.90;;;;;;;-144.82;100.00;71671.09;4997415;28;20034;-73
2022/06/13 03:59:08;;;;;;;;;;;;;;;-144.82;100.00;71671.09;4996639;28;20034;-73
2022/06/13 04:01:56;;;;;;;6.80;4.38;;;;;;;-144.82;100.00;71671.09;4997336;28;19910;-72
2022/06/13 04:04:39;;;;;;;7.97;4.25;;;;;;;-144.82;100.00;71671.09;4995878;28;20037;-73
2022/06/13 04:07:05;;;;;;;4.97;4.25;;;;;;;-144.82;100.00;71671.09;4995882;28;20096;-73
2022/06/13 04:09:37;;;;;;;5.53;4.20;;;;;;;-144.82;100.00;71671.09;4997021;28;20133;-72
2022/06/13 04:12:21;;;;;;;4.80;4.40;;;;;;;-144.82;100.00;71671.09;4997097;28;20100;-72
2022/06/13 04:15:06;;;;;;;5.38;4.78;;;;;;;-144.82;100.00;71671.09;4996641;28;20117;-73
2022/06/13 04:17:53;;;;;;;5.28;4.78;;;;;;;-144.82;100.00;71671.09;4996482;28;20037;-73
2022/06/13 04:21:03;;;;;;;5.57;4.97;;;;;;;-144.82;100.00;71671.09;4996760;28;20072;-73
2022/06/13 04:23:52;;;;;;;5.55;4.85;;;;;;;-144.82;100.00;71671.09;4995002;28;20038;-74
2022/06/13 04:26:28;;;;;;;9.00;5.00;;;;;;;-144.82;100.00;71671.09;4996687;28;20026;-74
2022/06/13 04:29:14;;;;;;;5.53;5.03;;;;;;;-144.82;100.00;71671.09;4995579;28;20030;-74
2022/06/13 04:31:40;;;;;;;6.03;4.50;;;;;;;-144.82;100.00;71671.09;4994885;28;20049;-73
2022/06/13 04:34:13;;;;;;;6.50;4.72;;;;;;;-144.82;100.00;71671.09;4995439;28;20022;-73
2022/06/13 04:36:39;;;;;;;5.35;4.85;;;;;;;-144.82;100.00;71671.09;4995624;28;20101;-73
2022/06/13 04:39:08;;;;;;;6.97;4.57;;;;;;;-144.82;100.00;71671.09;4979128;28;20454;-74
2022/06/13 04:41:37;;;;;;;5.05;3.92;;;;;;;-144.82;100.00;71671.09;4995028;28;20061;-73
2022/06/13 04:44:04;;;;;;;5.68;4.07;;;;;;;-144.82;100.00;71671.09;4962646;28;20089;-73
2022/06/13 04:46:31;;;;;;;3.83;3.42;;;;;;;-144.82;100.00;71671.09;4978830;28;20031;-73
2022/06/13 04:48:59;;;;;;;3.80;3.33;;;;;;;-144.82;100.00;71671.09;4978618;28;20058;-73
2022/06/13 04:51:41;;;;;;;7.90;3.38;;;;;;;-144.82;100.00;71671.09;4977530;28;20022;-73
2022/06/13 04:54:26;;;;;;;5.25;3.40;;;;;;;-144.82;100.00;71671.09;4978083;28;20384;-73
2022/06/13 04:56:58;;;;;;;5.30;3.20;;;;;;;-144.82;100.00;71671.09;4996025;28;20030;-74
2022/06/13 04:59:25;;;;;;;2.70;2.50;;;;;;;-144.82;100.00;71671.09;4979325;28;20093;-73
2022/06/13 05:01:51;;;;;;;7.50;3.25;;;;;;;-144.82;100.00;71671.09;4996311;28;20465;-73
2022/06/13 05:04:19;;;;;;;3.20;2.80;;;;;;;-144.82;100.00;71671.09;4978314;28;20121;-73
2022/06/13 05:06:50;;;;;;;5.10;3.05;;;;;;;-144.82;100.00;71671.09;4994713;28;20109;-73
2022/06/13 05:09:25;;;;;;;3.50;3.20;;;;;;;-144.82;100.00;71671.09;4994234;28;20046;-72
2022/06/13 05:12:05;;;;;;;4.32;2.97;;;;;;;-144.82;100.00;71671.09;4978347;28;20443;-73
2022/06/13 05:14:36;;;;;;;3.40;3.10;;;;;;;-144.82;100.00;71671.09;4995712;28;20105;-74
2022/06/13 05:17:29;;;;;;;3.28;2.97;;;;;;;-144.82;100.00;71671.09;4994443;28;20121;-74
2022/06/13 05:20:15;;;;;;;3.22;2.85;;;;;;;-144.82;100.00;71671.09;4994593;28;20022;-73
2022/06/13 05:23:20;;;;;;;3.60;2.78;;;;;;;-144.82;100.00;71671.09;4995288;28;20030;-73
2022/06/13 05:26:09;;;;;;;3.30;2.78;;;;;;;-144.82;100.00;71671.09;4995236;28;20154;-71
2022/06/13 05:28:35;;;;;;;5.30;3.17;;;;;;;-144.82;100.00;71671.09;4993918;28;20041;-73
2022/06/13 05:31:08;;;;;;;2.85;2.65;;;;;;;-144.82;100.00;71671.09;4977831;28;20499;-71
2022/06/13 05:33:53;;;;;;;3.40;3.10;;;;;;;-144.82;100.00;71671.09;4994076;28;20022;-73
2022/06/13 05:36:21;;;;;;;3.05;2.35;;;;;;;-144.82;100.00;71671.09;4994439;28;20018;-72
2022/06/13 05:38:52;;;;;;;3.28;2.53;;;;;;;-144.82;100.00;71671.09;4994149;28;20049;-72
2022/06/13 05:41:18;;;;;;;2.85;2.17;;;;;;;-144.82;100.00;71671.09;4978220;28;20117;-73
2022/06/13 05:43:45;;;;;;;2.85;2.60;;;;;;;-144.82;100.00;71671.09;4995441;28;20527;-73
2022/06/13 05:46:16;;;;;;;3.30;3.00;;;;;;;-144.82;100.00;71671.09;4993972;28;20034;-73
2022/06/13 05:48:42;;;;;;;3.33;2.42;;;;;;;-144.82;100.00;71671.09;4978578;28;20026;-71
2022/06/13 05:51:09;;;;;;;5.45;2.80;;;;;;;-144.82;100.00;71671.09;4994967;28;20538;-71
2022/06/13 05:53:35;;;;;;;2.58;2.00;;;;;;;-144.82;100.00;71671.09;4994934;28;20397;-72
2022/06/13 05:56:02;;;;;;;2.80;2.10;;;;;;;-144.82;100.00;71671.09;4980986;28;20173;-71
2022/06/13 05:58:28;;;;;;;9.88;3.00;;;;;;;-144.82;100.00;71671.09;4992376;28;20050;-71
2022/06/13 06:01:03;;;;;;;2.20;2.00;;;;;;;-144.82;100.00;71671.09;4994464;28;20026;-71
2022/06/13 06:03:29;;;;;;;6.25;2.40;;;;;;;-144.82;100.00;71671.09;4992924;28;20069;-72
2022/06/13 06:05:56;;;;;;;4.35;2.28;;;;;;;-144.82;100.00;71671.09;5003296;28;20052;-71
2022/06/13 06:08:26;;;;;;;2.50;2.22;;;;;;;-144.82;100.00;71671.09;5007534;28;20125;-72
2022/06/13 06:10:55;;;;;;;3.65;2.45;;;;;;;-144.82;100.00;71671.09;4992972;28;20053;-72
2022/06/13 06:13:30;;;;;;;3.00;2.15;;;;;;;-144.82;100.00;71671.09;4964178;28;20077;-73
2022/06/13 06:15:58;;;;;;;5.10;2.47;;;;;;;-144.82;100.00;71671.09;4994059;28;20360;-71
2022/06/13 06:18:33;;;;;;;2.97;2.00;;;;;;;-144.82;100.00;71671.09;4992773;28;20049;-71
2022/06/13 06:20:59;;;;;;;1.92;1.83;;;;;;;-144.82;100.00;71671.09;4996632;28;20077;-74
2022/06/13 06:23:26;;;;;;;2.55;2.33;;;;;;;-144.82;100.00;71671.09;4993842;28;20069;-72
2022/06/13 06:25:52;;;;;;;5.00;2.50;;;;;;;-144.82;100.00;71671.09;4993014;28;20027;-72
2022/06/13 06:28:22;;;;;;;3.03;2.30;;;;;;;-144.82;100.00;71671.09;4993534;28;20483;-74
2022/06/13 06:30:50;;;;;;;4.70;2.65;;;;;;;-144.82;100.00;71671.09;4992745;28;20038;-72
2022/06/13 06:33:16;;;;;;;2.42;2.05;;;;;;;-144.82;100.00;71671.09;4993822;28;20038;-72
2022/06/13 06:35:43;;;;;;;3.83;2.05;;;;;;;-144.82;100.00;71671.09;4992583;28;20030;-73
2022/06/13 06:38:09;;;;;;;5.90;2.00;;;;;;;-144.82;100.00;71671.09;4993687;28;20026;-72
2022/06/13 06:40:35;;;;;;;2.35;1.80;;;;;;;-144.82;100.00;71671.09;4976414;28;20498;-72
2022/06/13 06:43:03;;;;;;;4.13;2.45;;;;;;;-144.82;100.00;71671.09;4993192;28;20487;-72
2022/06/13 06:45:29;;;;;;;2.75;2.15;;;;;;;-144.82;100.00;71671.09;4994436;28;20109;-79
2022/06/13 06:47:55;;;;;;;2.22;2.03;;;;;;;-144.82;100.00;71671.09;4993606;28;20113;-79
2022/06/13 06:50:27;;;;;;;2.28;2.08;;;;;;;-144.82;100.00;71671.09;4992188;28;20034;-79
2022/06/13 06:52:52;;;;;;;3.22;2.28;;;;;;;-144.82;100.00;71671.09;4992074;28;20022;-76
2022/06/13 07:01:20;;;;;;;3.10;2.42;;;;;;;-144.82;100.00;71671.09;5005344;28;20134;-81
2022/06/13 07:03:46;;;;;;;5.05;2.78;;;;;;;-144.82;100.00;71671.09;5013892;28;20019;-83
2022/06/13 07:06:14;;;;;;;2.75;2.22;;;;;;;-144.82;100.00;71671.09;5012948;28;20038;-80
2022/06/13 07:08:43;;;;;;;5.03;2.42;;;;;;;-144.82;100.00;71671.09;5003705;28;20050;-78
2022/06/13 07:14:05;;;;;;;2.45;2.22;;;;;;;-144.82;100.00;71671.09;4982768;28;20042;-79
2022/06/13 07:16:31;;;;;;;6.03;2.28;;;;;;;-144.82;100.00;71671.09;5000091;28;20408;-79
2022/06/13 07:18:58;;;;;;;3.72;2.75;;;;;;;-144.82;100.00;71671.09;4983374;28;20494;-79
2022/06/13 07:21:24;;;;;;;2.42;2.22;;;;;;;-144.82;100.00;71671.09;4997309;28;20034;-79
2022/06/13 07:23:50;;;;;;;7.22;2.70;;;;;;;-144.82;100.00;71671.09;4998707;28;20061;-78
2022/06/13 07:26:16;;;;;;;2.20;2.00;;;;;;;-144.82;100.00;71671.09;5000666;28;20164;-79
2022/06/13 07:28:56;;;;;;;4.00;2.63;;;;;;;-144.82;100.00;71671.09;4998863;28;20026;-78
2022/06/13 07:31:26;;;;;;;2.13;1.75;;;;;;;-144.82;100.00;71671.09;4997803;28;20030;-79
2022/06/13 07:33:51;;;;;;;2.53;2.30;;;;;;;-144.82;100.00;71671.09;4997454;28;20034;-78
2022/06/13 07:36:18;;;;;;;6.45;2.70;;;;;;;-144.82;100.00;71671.09;4998844;28;20417;-78
2022/06/13 07:38:47;;;;;;;6.63;2.80;;;;;;;-144.82;100.00;71671.09;4981906;28;20399;-79
2022/06/13 07:41:17;;;;;;;3.58;2.95;;;;;;;-144.82;100.00;71671.09;4997046;28;20380;-76
2022/06/13 07:43:43;;;;;;;7.53;3.30;;;;;;;-144.82;100.00;71671.09;4996453;28;20114;-79
2022/06/13 07:46:11;;;;;;;7.97;3.38;;;;;;;-144.82;100.00;71671.09;4997849;28;20022;-78
2022/06/13 07:48:39;;;;;;;5.20;3.90;;;;;;;-144.82;100.00;71671.09;4996443;28;20093;-78
2022/06/13 07:51:05;;;;;;;5.25;4.45;;;;;;;-144.82;100.00;71671.09;4979988;28;20030;-79
2022/06/13 07:53:34;;;;;;;6.40;3.88;;;;;;;-144.82;100.00;71671.09;4997842;28;20387;-79
2022/06/13 07:56:19;;;;;;;6.32;4.68;;;;;;;-144.82;100.00;71671.09;5006192;28;20054;-79
2022/06/13 07:58:48;;;;;;;10.90;5.57;;;;;;;-144.82;100.00;71671.09;4996890;28;20022;-80
2022/06/13 08:01:16;;;;;;;7.35;4.68;;;;;;;-144.82;100.00;71671.09;4982392;28;20034;-81
2022/06/13 08:03:52;;;;;;;8.60;5.68;;;;;;;-144.82;100.00;71671.09;4997853;28;20034;-80
2022/06/13 08:06:17;;;;;;;13.25;5.57;;;;;;;-144.82;100.00;71671.09;4998177;28;20030;-81
2022/06/13 08:08:46;;;;;;;8.30;5.28;;;;;;;-144.82;100.00;71671.09;4999850;28;20085;-81
2022/06/13 08:11:15;;;;;;;9.32;6.32;;;;;;;-144.82;100.00;71671.09;4999659;28;20415;-78
2022/06/13 08:13:41;;;;;;;6.90;5.97;;;;;;;-144.82;100.00;71671.09;4980349;28;20065;-81
2022/06/13 08:16:15;;;;;;;7.72;6.28;;;;;;;-144.82;100.00;71671.09;5002371;28;20030;-78
2022/06/13 08:18:42;;;;;;;10.25;6.80;;;;;;;-144.82;100.00;71671.09;4996726;28;20073;-79
2022/06/13 08:21:11;;;;;;;9.73;7.07;;;;;;;-144.82;100.00;71671.09;4998627;28;20061;-78
2022/06/13 08:23:39;;;;;;;8.30;6.93;;;;;;;-144.82;100.00;71671.09;4979695;28;20026;-81
2022/06/13 08:26:04;;;;;;;7.03;6.32;;;;;;;-144.82;100.00;71671.09;4998783;28;20025;-79
2022/06/13 08:28:32;;;;;;;9.98;7.65;;;;;;;-144.82;100.00;71671.09;5001193;28;20026;-80
2022/06/13 08:31:06;;;;;;;10.65;8.27;;;;;;;-144.82;100.00;71671.09;4999897;28;20034;-82
2022/06/13 08:33:33;;;;;;;10.13;7.30;;;;;;;-144.82;100.00;71671.09;4997626;28;20030;-84
2022/06/13 08:36:00;;;;;;;10.80;8.00;;;;;;;-144.82;100.00;71671.09;4965370;28;20369;-83
2022/06/13 08:38:28;;;;;;;10.95;7.07;;;;;;;-144.82;100.00;71671.09;4998427;28;20030;-81
2022/06/13 08:41:21;;;;;;;8.25;7.28;;;;;;;-144.82;100.00;71671.09;5000243;28;20026;-81
2022/06/13 08:44:09;;;;;;;10.52;7.35;;;;;;;-144.82;100.00;71671.09;4997754;28;20074;-82
2022/06/13 08:47:02;;;;;;;9.95;7.10;;;;;;;-144.82;100.00;71671.09;4997462;28;20030;-81
2022/06/13 08:49:28;;;;;;;13.38;7.00;;;;;;;-144.82;100.00;71671.09;4995543;28;20029;-81
2022/06/13 08:52:23;;;;;;;13.95;7.43;;;;;;;-144.82;100.00;71671.09;4996496;28;20052;-80
2022/06/13 08:55:14;;;;;;;7.50;6.40;;;;;;;-144.82;100.00;71671.09;4995896;28;20116;-82
2022/06/13 08:57:48;;;;;;;22.48;8.18;;;;;;;-144.82;100.00;71671.09;4995794;28;20043;-81
2022/06/13 09:00:23;;;;;;;16.13;7.82;;;;;;;-144.82;100.00;71671.09;4980131;28;20081;-81
2022/06/13 09:02:52;;;;;;;9.50;5.93;;;;;;;-144.82;100.00;71671.09;4963518;28;20041;-80
2022/06/13 09:05:22;;;;;;;22.83;6.18;;;;;;;-144.82;100.00;71671.09;4978604;28;20177;-81
2022/06/13 09:07:58;;;;;;;15.55;5.93;;;;;;;-144.82;100.00;71671.09;4996874;28;20038;-81
2022/06/13 09:10:55;;;;;;;20.80;5.80;;;;;;;-144.82;100.00;71671.09;4999941;28;20060;-80
2022/06/13 09:13:35;;;;;;;11.32;6.43;;;;;;;-144.82;100.00;71671.09;4996928;28;20497;-82
2022/06/13 09:16:11;;;;;;;7.65;5.78;;;;;;;-144.82;100.00;71671.09;4995970;28;20029;-80
2022/06/13 09:18:48;;;;;;;12.70;5.38;;;;;;;-144.82;100.00;71671.09;4995963;28;20029;-81
2022/06/13 09:22:00;;;;;;;11.13;5.20;;;;;;;-144.82;100.00;71671.09;4978803;28;20045;-81
2022/06/13 09:24:36;;;;;;;;;;;;;;;-144.82;100.00;71671.09;4988584;28;20093;-80
2022/06/13 09:27:09;;;;;;;9.57;5.50;;;;;;;-144.82;100.00;71671.09;4996034;28;19925;-80
2022/06/13 09:29:59;;;;;;;26.63;10.30;;;;;;;-144.82;100.00;71671.09;4978028;28;20022;-80
2022/06/13 09:32:41;;;;;;;5.95;4.82;;;;;;;-144.82;100.00;71671.09;4994571;28;20030;-81
2022/06/13 09:35:10;;;;;;;7.82;5.38;;;;;;;-144.82;100.00;71671.09;4996025;28;20022;-79
2022/06/13 09:37:41;;;;;;;8.32;5.97;;;;;;;-144.82;100.00;71671.09;4995275;28;20383;-81
2022/06/13 09:40:07;;;;;;;6.60;4.82;;;;;;;-144.82;100.00;71671.09;4995705;28;20383;-80
2022/06/13 09:42:51;;;;;;;9.40;5.22;;;;;;;-144.82;100.00;71671.09;4978427;28;20117;-80
2022/06/13 09:45:37;;;;;;;10.57;5.72;;;;;;;-144.82;100.00;71671.09;4995445;28;20022;-81
2022/06/13 09:48:09;;;;;;;7.72;5.10;;;;;;;-144.82;100.00;71671.09;4995524;28;20023;-80
2022/06/13 09:51:02;;;;;;;8.90;5.60;;;;;;;-144.82;100.00;71671.09;4995404;28;20114;-80
2022/06/13 09:53:58;;;;;;;12.23;6.13;;;;;;;-144.82;100.00;71671.09;4993754;28;20498;-81
2022/06/13 09:56:58;;;;;;;8.10;5.63;;;;;;;-144.82;100.00;71671.09;4995608;28;20030;-81
2022/06/13 09:59:59;;;;;;;7.80;5.70;;;;;;;-144.82;100.00;71671.09;4979423;28;20396;-81
2022/06/13 10:02:52;;;;;;;10.53;6.00;;;;;;;-144.82;100.00;71671.09;4946861;28;20041;-79
2022/06/13 10:06:00;;;;;;;8.40;5.20;;;;;;;-144.82;100.00;71671.09;4995057;28;20105;-79
2022/06/13 10:08:55;;;;;;;8.35;5.07;;;;;;;-144.82;100.00;71671.09;4916048;29;20036;-80
2022/06/13 10:12:06;;;;;;;12.73;4.85;;;;;;;-144.82;100.00;71671.09;4962972;28;20038;-82
2022/06/13 10:15:13;;;;;;;5.55;4.45;;;;;;;-144.82;100.00;71671.09;4983651;28;20509;-83
2022/06/13 10:17:57;;;;;;;8.02;5.35;;;;;;;-144.82;100.00;71671.09;4994470;28;20045;-77
2022/06/13 10:20:53;;;;;;;10.77;5.07;;;;;;;-144.82;100.00;71671.09;4995057;28;20026;-81
2022/06/13 10:23:44;;;;;;;8.32;5.53;;;;;;;-144.82;100.00;71671.09;4995392;28;20046;-81
2022/06/13 10:26:43;;;;;;;8.67;5.57;;;;;;;-144.82;100.00;71671.09;4994986;28;20147;-81
2022/06/13 10:29:34;;;;;;;10.10;6.18;;;;;;;-144.82;100.00;71671.09;4994567;28;20328;-81
2022/06/13 10:32:36;;;;;;;10.75;4.88;;;;;;;-144.82;100.00;71671.09;4994496;28;20100;-82
2022/06/13 10:35:27;;;;;;;8.23;4.95;;;;;;;-144.82;100.00;71671.09;4994761;28;20494;-81
2022/06/13 10:38:06;;;;;;;6.82;5.32;;;;;;;-144.82;100.00;71671.09;4995111;28;20062;-81
2022/06/13 10:40:40;;;;;;;10.65;5.35;;;;;;;-144.82;100.00;71671.09;4995992;28;20065;-81
2022/06/13 10:43:06;;;;;;;6.75;4.60;;;;;;;-144.82;100.00;71671.09;4995800;28;20018;-82
2022/06/13 10:45:34;;;;;;;7.20;4.43;;;;;;;-144.82;100.00;71671.09;4993206;28;20050;-81
2022/06/13 10:48:17;;;;;;;10.07;4.32;;;;;;;-144.82;100.00;71671.09;4961677;28;20038;-81
2022/06/13 10:50:45;;;;;;;7.70;5.20;;;;;;;-144.82;100.00;71671.09;4993892;28;20032;-81
2022/06/13 10:53:34;;;;;;;6.90;4.47;;;;;;;-144.82;100.00;71671.09;4994586;28;20490;-81
2022/06/13 10:56:03;;;;;;;9.38;4.50;;;;;;;-144.82;100.00;71671.09;4979427;28;20379;-80
2022/06/13 10:58:40;;;;;;;7.78;4.57;;;;;;;-144.82;100.00;71671.09;4993014;28;20430;-80
2022/06/13 11:01:15;;;;;;;6.97;5.00;;;;;;;-144.82;100.00;71671.09;4994719;28;20126;-81
2022/06/13 11:03:59;;;;;;;8.93;5.03;;;;;;;-144.82;100.00;71671.09;4995742;28;20027;-81
2022/06/13 11:06:45;;;;;;;8.75;5.22;;;;;;;-144.82;100.00;71671.09;4979645;28;20035;-79
2022/06/13 11:09:42;;;;;;;7.20;3.95;;;;;;;-144.82;100.00;71671.09;4994061;28;20421;-83
2022/06/13 11:12:29;;;;;;;10.23;5.07;;;;;;;-144.82;100.00;71671.09;4993068;28;20022;-81
2022/06/13 11:24:50;;;;;;;6.88;4.32;;;;;;;-144.82;100.00;71671.09;4994372;28;20041;-83
2022/06/13 11:27:41;;;;;;;5.30;4.72;;;;;;;-144.82;100.00;71671.09;4991178;28;20034;-81
2022/06/13 11:30:33;;;;;;;5.25;4.65;;;;;;;-144.82;100.00;71671.09;4994996;28;20069;-81
2022/06/13 11:33:10;;;;;;;6.93;4.38;;;;;;;-144.82;100.00;71671.09;4994599;28;20545;-78
2022/06/13 11:35:50;;;;;;;6.28;4.72;;;;;;;-144.82;100.00;71671.09;4976466;28;20034;-78
2022/06/13 11:38:32;;;;;;;6.05;4.55;;;;;;;-144.82;100.00;71671.09;4976539;28;20026;-79
2022/06/13 11:41:24;;;;;;;6.07;4.47;;;;;;;-144.82;100.00;71671.09;4994104;28;20026;-80
2022/06/13 11:44:03;;;;;;;7.32;4.65;;;;;;;-144.82;100.00;71671.09;4994523;28;20026;-78
2022/06/13 11:46:55;;;;;;;5.65;4.68;;;;;;;-144.82;100.00;71671.09;4993562;28;20084;-82
2022/06/13 11:49:32;;;;;;;5.97;4.55;;;;;;;-144.82;100.00;71671.09;4999817;28;20054;-78
2022/06/13 11:55:29;;;;;;;7.82;4.63;;;;;;;-144.82;100.00;71671.09;4994066;28;20072;-77
2022/06/13 11:57:58;;;;;;;5.43;4.35;;;;;;;-144.82;100.00;71671.09;4977440;28;20023;-77
2022/06/13 12:00:28;;;;;;;9.48;5.07;;;;;;;-144.82;100.00;71671.09;4978107;28;20061;-77
2022/06/13 12:03:07;;;;;;;10.65;5.57;;;;;;;-144.82;100.00;71671.09;5000700;28;20026;-79
2022/06/13 12:05:39;;;;;;;5.88;4.80;;;;;;;-144.82;100.00;71671.09;4997052;28;20348;-73
2022/06/13 12:08:19;;;;;;;4.65;3.95;;;;;;;-144.82;100.00;71671.09;4979327;28;20038;-75
2022/06/13 12:11:02;;;;;;;11.45;3.88;;;;;;;-144.82;100.00;71671.09;4996933;28;20046;-74
2022/06/13 12:13:34;;;;;;;7.38;4.07;;;;;;;-144.82;100.00;71671.09;4996494;28;20069;-74
2022/06/13 12:16:22;;;;;;;7.70;4.55;;;;;;;-144.82;100.00;71671.09;4979455;28;20088;-74